sensor_id;sensor_type;location;lat;lon;timestamp;temperature;humidity
38333;DHT22;25748;46.670;14.272;2022-09-01T00:00:32;16.60;89.90
38333;DHT22;25748;46.670;14.272;2022-09-01T00:02:58;16.60;89.80
38333;DHT22;25748;46.670;14.272;2022-09-01T00:05:24;16.60;89.90
38333;DHT22;25748;46.670;14.272;2022-09-01T00:07:49;16.60;89.80
38333;DHT22;25748;46.670;14.272;2022-09-01T00:10:15;16.60;89.80
38333;DHT22;25748;46.670;14.272;2022-09-01T00:12:41;16.60;89.70
38333;DHT22;25748;46.670;14.272;2022-09-01T00:15:09;16.70;89.60
38333;DHT22;25748;46.670;14.272;2022-09-01T00:17:35;16.60;89.30
38333;DHT22;25748;46.670;14.272;2022-09-01T00:20:02;16.60;89.40
38333;DHT22;25748;46.670;14.272;2022-09-01T00:22:28;16.60;89.40
38333;DHT22;25748;46.670;14.272;2022-09-01T00:24:54;16.60;89.30
38333;DHT22;25748;46.670;14.272;2022-09-01T00:27:21;16.60;89.40
38333;DHT22;25748;46.670;14.272;2022-09-01T00:29:46;16.60;89.30
38333;DHT22;25748;46.670;14.272;2022-09-01T00:32:12;16.60;89.40
38333;DHT22;25748;46.670;14.272;2022-09-01T00:34:38;16.60;89.60
38333;DHT22;25748;46.670;14.272;2022-09-01T00:37:04;16.60;89.50
38333;DHT22;25748;46.670;14.272;2022-09-01T00:39:30;16.60;89.40
38333;DHT22;25748;46.670;14.272;2022-09-01T00:41:56;16.60;89.40
38333;DHT22;25748;46.670;14.272;2022-09-01T00:44:24;16.60;89.30
38333;DHT22;25748;46.670;14.272;2022-09-01T00:46:53;16.60;89.40
38333;DHT22;25748;46.670;14.272;2022-09-01T00:49:32;16.60;89.40
38333;DHT22;25748;46.670;14.272;2022-09-01T00:52:10;16.60;89.50
38333;DHT22;25748;46.670;14.272;2022-09-01T00:54:41;16.60;89.60
38333;DHT22;25748;46.670;14.272;2022-09-01T00:57:09;16.60;89.60
38333;DHT22;25748;46.670;14.272;2022-09-01T00:59:41;16.50;89.70
38333;DHT22;25748;46.670;14.272;2022-09-01T01:02:08;16.60;89.90
38333;DHT22;25748;46.670;14.272;2022-09-01T01:04:35;16.50;90.00
38333;DHT22;25748;46.670;14.272;2022-09-01T01:07:02;16.60;90.00
38333;DHT22;25748;46.670;14.272;2022-09-01T01:09:33;16.50;90.00
38333;DHT22;25748;46.670;14.272;2022-09-01T01:12:02;16.50;90.00
38333;DHT22;25748;46.670;14.272;2022-09-01T01:14:29;16.50;90.00
38333;DHT22;25748;46.670;14.272;2022-09-01T01:16:57;16.50;90.10
38333;DHT22;25748;46.670;14.272;2022-09-01T01:25:14;16.40;90.20
38333;DHT22;25748;46.670;14.272;2022-09-01T01:27:42;16.40;90.00
38333;DHT22;25748;46.670;14.272;2022-09-01T01:30:09;16.30;90.20
38333;DHT22;25748;46.670;14.272;2022-09-01T01:32:37;16.30;90.10
38333;DHT22;25748;46.670;14.272;2022-09-01T01:35:11;16.30;89.90
38333;DHT22;25748;46.670;14.272;2022-09-01T01:37:44;16.30;89.80
38333;DHT22;25748;46.670;14.272;2022-09-01T01:40:12;16.30;89.80
38333;DHT22;25748;46.670;14.272;2022-09-01T01:42:44;16.30;89.90
38333;DHT22;25748;46.670;14.272;2022-09-01T01:45:12;16.30;90.10
38333;DHT22;25748;46.670;14.272;2022-09-01T01:47:45;16.30;90.00
38333;DHT22;25748;46.670;14.272;2022-09-01T01:50:19;16.30;90.00
38333;DHT22;25748;46.670;14.272;2022-09-01T01:52:45;16.30;89.60
38333;DHT22;25748;46.670;14.272;2022-09-01T01:55:12;16.30;89.40
38333;DHT22;25748;46.670;14.272;2022-09-01T01:57:39;16.30;89.50
38333;DHT22;25748;46.670;14.272;2022-09-01T02:00:10;16.30;89.50
38333;DHT22;25748;46.670;14.272;2022-09-01T02:02:36;16.30;89.70
38333;DHT22;25748;46.670;14.272;2022-09-01T02:05:04;16.30;89.50
38333;DHT22;25748;46.670;14.272;2022-09-01T02:07:31;16.20;89.60
38333;DHT22;25748;46.670;14.272;2022-09-01T02:09:57;16.20;89.60
38333;DHT22;25748;46.670;14.272;2022-09-01T02:12:22;16.20;90.00
38333;DHT22;25748;46.670;14.272;2022-09-01T02:14:49;16.20;89.80
38333;DHT22;25748;46.670;14.272;2022-09-01T02:17:15;16.20;89.70
38333;DHT22;25748;46.670;14.272;2022-09-01T02:19:41;16.20;90.10
38333;DHT22;25748;46.670;14.272;2022-09-01T02:22:07;16.20;90.00
38333;DHT22;25748;46.670;14.272;2022-09-01T02:24:36;16.20;90.10
38333;DHT22;25748;46.670;14.272;2022-09-01T02:27:02;16.20;90.20
38333;DHT22;25748;46.670;14.272;2022-09-01T02:29:27;16.20;90.20
38333;DHT22;25748;46.670;14.272;2022-09-01T02:31:55;16.10;90.20
38333;DHT22;25748;46.670;14.272;2022-09-01T02:34:22;16.10;90.10
38333;DHT22;25748;46.670;14.272;2022-09-01T02:36:50;16.10;90.20
38333;DHT22;25748;46.670;14.272;2022-09-01T02:39:19;16.00;90.10
38333;DHT22;25748;46.670;14.272;2022-09-01T02:41:46;16.10;90.20
38333;DHT22;25748;46.670;14.272;2022-09-01T02:44:11;16.10;90.10
38333;DHT22;25748;46.670;14.272;2022-09-01T02:46:40;16.10;90.00
38333;DHT22;25748;46.670;14.272;2022-09-01T02:49:25;16.00;89.90
38333;DHT22;25748;46.670;14.272;2022-09-01T02:51:54;16.00;90.10
38333;DHT22;25748;46.670;14.272;2022-09-01T02:54:22;16.00;89.80
38333;DHT22;25748;46.670;14.272;2022-09-01T02:56:49;15.90;89.70
38333;DHT22;25748;46.670;14.272;2022-09-01T02:59:21;15.90;90.00
38333;DHT22;25748;46.670;14.272;2022-09-01T03:01:48;15.90;90.00
38333;DHT22;25748;46.670;14.272;2022-09-01T03:04:15;15.90;90.20
38333;DHT22;25748;46.670;14.272;2022-09-01T03:06:41;15.90;90.20
38333;DHT22;25748;46.670;14.272;2022-09-01T03:09:13;16.00;90.30
38333;DHT22;25748;46.670;14.272;2022-09-01T03:11:41;16.00;90.30
38333;DHT22;25748;46.670;14.272;2022-09-01T03:14:07;16.00;90.20
38333;DHT22;25748;46.670;14.272;2022-09-01T03:16:34;16.00;90.10
38333;DHT22;25748;46.670;14.272;2022-09-01T03:19:00;16.00;90.10
38333;DHT22;25748;46.670;14.272;2022-09-01T03:21:28;16.00;90.00
38333;DHT22;25748;46.670;14.272;2022-09-01T03:23:55;15.90;90.00
38333;DHT22;25748;46.670;14.272;2022-09-01T03:26:22;15.90;89.90
38333;DHT22;25748;46.670;14.272;2022-09-01T03:28:50;15.90;89.90
38333;DHT22;25748;46.670;14.272;2022-09-01T03:31:17;15.80;90.00
38333;DHT22;25748;46.670;14.272;2022-09-01T03:33:44;15.80;90.00
38333;DHT22;25748;46.670;14.272;2022-09-01T03:36:10;15.80;89.80
38333;DHT22;25748;46.670;14.272;2022-09-01T03:38:45;15.80;89.80
38333;DHT22;25748;46.670;14.272;2022-09-01T03:41:14;15.70;90.10
38333;DHT22;25748;46.670;14.272;2022-09-01T03:43:42;15.60;89.90
38333;DHT22;25748;46.670;14.272;2022-09-01T03:46:08;15.60;89.90
38333;DHT22;25748;46.670;14.272;2022-09-01T03:48:35;15.50;90.00
38333;DHT22;25748;46.670;14.272;2022-09-01T03:51:01;15.50;90.10
38333;DHT22;25748;46.670;14.272;2022-09-01T03:53:29;15.50;90.30
38333;DHT22;25748;46.670;14.272;2022-09-01T03:55:55;15.50;90.20
38333;DHT22;25748;46.670;14.272;2022-09-01T03:58:22;15.50;90.30
38333;DHT22;25748;46.670;14.272;2022-09-01T04:00:52;15.50;90.30
38333;DHT22;25748;46.670;14.272;2022-09-01T04:03:24;15.50;90.20
38333;DHT22;25748;46.670;14.272;2022-09-01T04:05:52;15.50;90.30
38333;DHT22;25748;46.670;14.272;2022-09-01T04:08:20;15.50;90.20
38333;DHT22;25748;46.670;14.272;2022-09-01T04:10:50;15.50;90.30
38333;DHT22;25748;46.670;14.272;2022-09-01T04:13:22;15.50;90.20
38333;DHT22;25748;46.670;14.272;2022-09-01T04:15:48;15.40;89.50
38333;DHT22;25748;46.670;14.272;2022-09-01T04:18:15;15.40;89.60
38333;DHT22;25748;46.670;14.272;2022-09-01T04:20:47;15.40;89.40
38333;DHT22;25748;46.670;14.272;2022-09-01T04:23:33;15.40;89.30
38333;DHT22;25748;46.670;14.272;2022-09-01T04:26:08;15.40;89.00
38333;DHT22;25748;46.670;14.272;2022-09-01T04:28:39;15.40;88.90
38333;DHT22;25748;46.670;14.272;2022-09-01T04:31:08;15.40;89.00
38333;DHT22;25748;46.670;14.272;2022-09-01T04:33:36;15.40;89.00
38333;DHT22;25748;46.670;14.272;2022-09-01T04:36:12;15.40;89.00
38333;DHT22;25748;46.670;14.272;2022-09-01T04:38:38;15.40;88.50
38333;DHT22;25748;46.670;14.272;2022-09-01T04:41:05;15.40;88.60
38333;DHT22;25748;46.670;14.272;2022-09-01T04:43:32;15.40;88.60
38333;DHT22;25748;46.670;14.272;2022-09-01T04:45:58;15.30;88.20
38333;DHT22;25748;46.670;14.272;2022-09-01T04:48:24;15.40;88.00
38333;DHT22;25748;46.670;14.272;2022-09-01T04:50:50;15.40;87.90
38333;DHT22;25748;46.670;14.272;2022-09-01T04:53:17;15.30;87.70
38333;DHT22;25748;46.670;14.272;2022-09-01T04:55:45;15.40;87.60
38333;DHT22;25748;46.670;14.272;2022-09-01T04:58:14;15.30;87.90
38333;DHT22;25748;46.670;14.272;2022-09-01T05:00:45;15.30;87.40
38333;DHT22;25748;46.670;14.272;2022-09-01T05:03:12;15.30;87.70
38333;DHT22;25748;46.670;14.272;2022-09-01T05:05:44;15.40;88.00
38333;DHT22;25748;46.670;14.272;2022-09-01T05:08:12;15.40;87.60
38333;DHT22;25748;46.670;14.272;2022-09-01T05:10:41;15.30;87.10
38333;DHT22;25748;46.670;14.272;2022-09-01T05:13:12;15.30;86.80
38333;DHT22;25748;46.670;14.272;2022-09-01T05:15:40;15.30;86.10
38333;DHT22;25748;46.670;14.272;2022-09-01T05:18:17;15.30;86.20
38333;DHT22;25748;46.670;14.272;2022-09-01T05:20:49;15.40;86.60
38333;DHT22;25748;46.670;14.272;2022-09-01T05:23:15;15.40;86.60
38333;DHT22;25748;46.670;14.272;2022-09-01T05:25:45;15.40;86.40
38333;DHT22;25748;46.670;14.272;2022-09-01T05:28:14;15.40;86.40
38333;DHT22;25748;46.670;14.272;2022-09-01T05:30:44;15.40;86.10
38333;DHT22;25748;46.670;14.272;2022-09-01T05:33:11;15.40;86.50
38333;DHT22;25748;46.670;14.272;2022-09-01T05:35:41;15.40;86.20
38333;DHT22;25748;46.670;14.272;2022-09-01T05:38:10;15.40;86.00
38333;DHT22;25748;46.670;14.272;2022-09-01T05:40:42;15.40;86.00
38333;DHT22;25748;46.670;14.272;2022-09-01T05:43:12;15.40;86.10
38333;DHT22;25748;46.670;14.272;2022-09-01T05:45:42;15.50;86.30
38333;DHT22;25748;46.670;14.272;2022-09-01T05:48:11;15.50;86.40
38333;DHT22;25748;46.670;14.272;2022-09-01T05:50:41;15.50;86.40
38333;DHT22;25748;46.670;14.272;2022-09-01T05:53:11;15.60;86.60
38333;DHT22;25748;46.670;14.272;2022-09-01T05:55:46;15.60;86.40
38333;DHT22;25748;46.670;14.272;2022-09-01T05:58:14;15.70;86.80
38333;DHT22;25748;46.670;14.272;2022-09-01T06:00:42;15.60;85.80
38333;DHT22;25748;46.670;14.272;2022-09-01T06:03:10;15.70;86.00
38333;DHT22;25748;46.670;14.272;2022-09-01T06:05:36;15.70;86.40
38333;DHT22;25748;46.670;14.272;2022-09-01T06:08:04;15.80;86.00
38333;DHT22;25748;46.670;14.272;2022-09-01T06:10:31;15.80;86.00
38333;DHT22;25748;46.670;14.272;2022-09-01T06:12:57;15.80;86.00
38333;DHT22;25748;46.670;14.272;2022-09-01T06:15:30;15.80;85.00
38333;DHT22;25748;46.670;14.272;2022-09-01T06:17:57;15.80;83.80
38333;DHT22;25748;46.670;14.272;2022-09-01T06:20:24;15.90;83.20
38333;DHT22;25748;46.670;14.272;2022-09-01T06:22:50;15.90;83.80
38333;DHT22;25748;46.670;14.272;2022-09-01T06:25:20;16.00;83.70
38333;DHT22;25748;46.670;14.272;2022-09-01T06:27:46;16.00;84.20
38333;DHT22;25748;46.670;14.272;2022-09-01T06:30:13;16.00;83.50
38333;DHT22;25748;46.670;14.272;2022-09-01T06:32:42;16.10;83.40
38333;DHT22;25748;46.670;14.272;2022-09-01T06:35:10;16.10;82.10
38333;DHT22;25748;46.670;14.272;2022-09-01T06:37:37;16.10;82.00
38333;DHT22;25748;46.670;14.272;2022-09-01T06:40:04;16.20;80.80
38333;DHT22;25748;46.670;14.272;2022-09-01T06:42:30;16.20;80.30
38333;DHT22;25748;46.670;14.272;2022-09-01T06:45:00;16.20;79.90
38333;DHT22;25748;46.670;14.272;2022-09-01T06:47:26;16.20;80.10
38333;DHT22;25748;46.670;14.272;2022-09-01T06:49:53;16.10;80.40
38333;DHT22;25748;46.670;14.272;2022-09-01T06:52:23;16.10;80.20
38333;DHT22;25748;46.670;14.272;2022-09-01T06:54:49;16.20;80.00
38333;DHT22;25748;46.670;14.272;2022-09-01T06:57:17;16.20;80.20
38333;DHT22;25748;46.670;14.272;2022-09-01T06:59:43;16.30;80.20
38333;DHT22;25748;46.670;14.272;2022-09-01T07:02:10;16.20;78.80
38333;DHT22;25748;46.670;14.272;2022-09-01T07:04:41;16.30;79.30
38333;DHT22;25748;46.670;14.272;2022-09-01T07:07:08;16.40;79.20
38333;DHT22;25748;46.670;14.272;2022-09-01T07:09:35;16.40;79.10
38333;DHT22;25748;46.670;14.272;2022-09-01T07:12:02;16.50;79.00
38333;DHT22;25748;46.670;14.272;2022-09-01T07:14:29;16.50;78.10
38333;DHT22;25748;46.670;14.272;2022-09-01T07:16:55;16.50;77.70
38333;DHT22;25748;46.670;14.272;2022-09-01T07:19:23;16.60;77.80
38333;DHT22;25748;46.670;14.272;2022-09-01T07:21:51;16.60;77.50
38333;DHT22;25748;46.670;14.272;2022-09-01T07:24:18;16.70;77.40
38333;DHT22;25748;46.670;14.272;2022-09-01T07:26:45;16.80;77.00
38333;DHT22;25748;46.670;14.272;2022-09-01T07:29:15;16.80;76.80
38333;DHT22;25748;46.670;14.272;2022-09-01T07:31:42;16.90;76.60
38333;DHT22;25748;46.670;14.272;2022-09-01T07:34:10;17.00;75.90
38333;DHT22;25748;46.670;14.272;2022-09-01T07:36:41;17.00;75.40
38333;DHT22;25748;46.670;14.272;2022-09-01T07:39:08;17.10;75.80
38333;DHT22;25748;46.670;14.272;2022-09-01T07:41:34;17.20;74.90
38333;DHT22;25748;46.670;14.272;2022-09-01T07:44:02;17.30;75.10
38333;DHT22;25748;46.670;14.272;2022-09-01T07:46:30;17.40;75.20
38333;DHT22;25748;46.670;14.272;2022-09-01T07:48:58;17.50;74.50
38333;DHT22;25748;46.670;14.272;2022-09-01T07:51:25;17.60;74.00
38333;DHT22;25748;46.670;14.272;2022-09-01T07:53:51;17.80;74.10
38333;DHT22;25748;46.670;14.272;2022-09-01T07:56:20;17.90;72.50
38333;DHT22;25748;46.670;14.272;2022-09-01T07:58:47;18.00;71.90
38333;DHT22;25748;46.670;14.272;2022-09-01T08:01:31;18.10;71.90
38333;DHT22;25748;46.670;14.272;2022-09-01T08:03:58;18.10;69.70
38333;DHT22;25748;46.670;14.272;2022-09-01T08:06:27;18.30;70.00
38333;DHT22;25748;46.670;14.272;2022-09-01T08:08:54;18.50;69.70
38333;DHT22;25748;46.670;14.272;2022-09-01T08:11:24;18.60;68.40
38333;DHT22;25748;46.670;14.272;2022-09-01T08:13:52;18.80;68.50
38333;DHT22;25748;46.670;14.272;2022-09-01T08:16:18;19.00;68.40
38333;DHT22;25748;46.670;14.272;2022-09-01T08:18:45;19.40;68.50
38333;DHT22;25748;46.670;14.272;2022-09-01T08:21:13;19.70;66.50
38333;DHT22;25748;46.670;14.272;2022-09-01T08:23:39;20.00;66.70
38333;DHT22;25748;46.670;14.272;2022-09-01T08:26:10;20.40;65.50
38333;DHT22;25748;46.670;14.272;2022-09-01T08:28:36;20.40;60.70
38333;DHT22;25748;46.670;14.272;2022-09-01T08:31:08;20.50;60.50
38333;DHT22;25748;46.670;14.272;2022-09-01T08:33:38;20.60;59.90
38333;DHT22;25748;46.670;14.272;2022-09-01T08:36:10;20.70;59.70
38333;DHT22;25748;46.670;14.272;2022-09-01T08:38:36;20.90;61.20
38333;DHT22;25748;46.670;14.272;2022-09-01T08:41:02;21.10;58.90
38333;DHT22;25748;46.670;14.272;2022-09-01T08:46:16;21.00;56.70
38333;DHT22;25748;46.670;14.272;2022-09-01T08:48:51;21.00;57.10
38333;DHT22;25748;46.670;14.272;2022-09-01T08:51:35;21.10;56.10
38333;DHT22;25748;46.670;14.272;2022-09-01T08:56:27;21.80;57.70
38333;DHT22;25748;46.670;14.272;2022-09-01T08:58:53;22.00;55.90
38333;DHT22;25748;46.670;14.272;2022-09-01T09:01:28;22.30;55.00
38333;DHT22;25748;46.670;14.272;2022-09-01T09:06:51;22.80;53.10
38333;DHT22;25748;46.670;14.272;2022-09-01T09:09:19;23.20;53.20
38333;DHT22;25748;46.670;14.272;2022-09-01T09:12:18;23.50;52.00
38333;DHT22;25748;46.670;14.272;2022-09-01T09:17:15;23.60;50.50
38333;DHT22;25748;46.670;14.272;2022-09-01T09:19:43;24.00;50.00
38333;DHT22;25748;46.670;14.272;2022-09-01T09:22:17;24.30;49.90
38333;DHT22;25748;46.670;14.272;2022-09-01T09:27:23;24.40;49.10
38333;DHT22;25748;46.670;14.272;2022-09-01T09:29:51;24.40;48.70
38333;DHT22;25748;46.670;14.272;2022-09-01T09:32:19;24.70;48.30
38333;DHT22;25748;46.670;14.272;2022-09-01T09:34:46;24.70;46.80
38333;DHT22;25748;46.670;14.272;2022-09-01T09:37:25;24.40;47.30
38333;DHT22;25748;46.670;14.272;2022-09-01T09:45:39;24.20;47.70
38333;DHT22;25748;46.670;14.272;2022-09-01T09:48:28;24.30;48.30
38333;DHT22;25748;46.670;14.272;2022-09-01T09:50:54;24.30;47.40
38333;DHT22;25748;46.670;14.272;2022-09-01T09:53:30;24.00;47.00
38333;DHT22;25748;46.670;14.272;2022-09-01T09:56:21;23.90;46.60
38333;DHT22;25748;46.670;14.272;2022-09-01T09:58:48;23.70;47.50
38333;DHT22;25748;46.670;14.272;2022-09-01T10:04:00;23.50;48.80
38333;DHT22;25748;46.670;14.272;2022-09-01T10:06:35;23.70;48.00
38333;DHT22;25748;46.670;14.272;2022-09-01T10:09:08;23.80;48.80
38333;DHT22;25748;46.670;14.272;2022-09-01T10:11:42;24.30;47.60
38333;DHT22;25748;46.670;14.272;2022-09-01T10:14:19;24.70;46.30
38333;DHT22;25748;46.670;14.272;2022-09-01T10:16:51;25.00;46.80
38333;DHT22;25748;46.670;14.272;2022-09-01T10:19:17;24.90;45.90
38333;DHT22;25748;46.670;14.272;2022-09-01T10:21:45;25.10;45.70
38333;DHT22;25748;46.670;14.272;2022-09-01T10:24:39;25.10;45.50
38333;DHT22;25748;46.670;14.272;2022-09-01T10:27:14;24.90;44.90
38333;DHT22;25748;46.670;14.272;2022-09-01T10:30:11;24.80;45.00
38333;DHT22;25748;46.670;14.272;2022-09-01T10:32:45;24.40;45.20
38333;DHT22;25748;46.670;14.272;2022-09-01T10:35:15;24.00;46.10
38333;DHT22;25748;46.670;14.272;2022-09-01T10:37:43;23.80;46.10
38333;DHT22;25748;46.670;14.272;2022-09-01T10:42:59;23.60;46.20
38333;DHT22;25748;46.670;14.272;2022-09-01T10:45:32;23.40;45.90
38333;DHT22;25748;46.670;14.272;2022-09-01T10:48:22;23.20;46.20
38333;DHT22;25748;46.670;14.272;2022-09-01T10:50:51;23.00;46.80
38333;DHT22;25748;46.670;14.272;2022-09-01T11:04:22;22.30;46.50
38333;DHT22;25748;46.670;14.272;2022-09-01T11:07:00;22.00;47.70
38333;DHT22;25748;46.670;14.272;2022-09-01T11:09:41;21.80;47.40
38333;DHT22;25748;46.670;14.272;2022-09-01T11:14:55;21.70;47.90
38333;DHT22;25748;46.670;14.272;2022-09-01T11:22:32;21.70;48.20
38333;DHT22;25748;46.670;14.272;2022-09-01T11:32:43;21.60;49.30
38333;DHT22;25748;46.670;14.272;2022-09-01T11:35:19;21.50;49.90
38333;DHT22;25748;46.670;14.272;2022-09-01T11:37:53;21.40;49.60
38333;DHT22;25748;46.670;14.272;2022-09-01T11:40:26;21.30;49.40
38333;DHT22;25748;46.670;14.272;2022-09-01T11:42:55;21.20;49.50
38333;DHT22;25748;46.670;14.272;2022-09-01T11:45:30;21.10;49.50
38333;DHT22;25748;46.670;14.272;2022-09-01T11:48:02;21.00;49.40
38333;DHT22;25748;46.670;14.272;2022-09-01T11:50:36;21.10;50.10
38333;DHT22;25748;46.670;14.272;2022-09-01T11:53:09;21.20;49.30
38333;DHT22;25748;46.670;14.272;2022-09-01T11:55:38;21.20;49.20
38333;DHT22;25748;46.670;14.272;2022-09-01T11:58:06;21.20;49.10
38333;DHT22;25748;46.670;14.272;2022-09-01T12:00:37;21.20;49.40
38333;DHT22;25748;46.670;14.272;2022-09-01T12:03:27;21.30;49.70
38333;DHT22;25748;46.670;14.272;2022-09-01T12:06:05;21.20;49.80
38333;DHT22;25748;46.670;14.272;2022-09-01T12:08:42;21.20;49.70
38333;DHT22;25748;46.670;14.272;2022-09-01T12:11:21;21.30;49.50
38333;DHT22;25748;46.670;14.272;2022-09-01T12:14:05;21.20;49.10
38333;DHT22;25748;46.670;14.272;2022-09-01T12:16:33;21.10;49.10
38333;DHT22;25748;46.670;14.272;2022-09-01T12:19:00;21.10;49.20
38333;DHT22;25748;46.670;14.272;2022-09-01T12:24:09;21.30;50.10
38333;DHT22;25748;46.670;14.272;2022-09-01T12:26:38;21.20;49.40
38333;DHT22;25748;46.670;14.272;2022-09-01T12:29:04;21.20;49.30
38333;DHT22;25748;46.670;14.272;2022-09-01T12:31:32;21.10;49.20
38333;DHT22;25748;46.670;14.272;2022-09-01T12:33:58;21.10;48.80
38333;DHT22;25748;46.670;14.272;2022-09-01T12:36:32;21.20;49.00
38333;DHT22;25748;46.670;14.272;2022-09-01T12:39:23;21.20;49.10
38333;DHT22;25748;46.670;14.272;2022-09-01T12:52:50;21.40;49.70
38333;DHT22;25748;46.670;14.272;2022-09-01T12:55:22;21.40;49.50
38333;DHT22;25748;46.670;14.272;2022-09-01T12:57:54;21.40;49.00
38333;DHT22;25748;46.670;14.272;2022-09-01T13:00:26;21.30;49.40
38333;DHT22;25748;46.670;14.272;2022-09-01T13:08:11;21.30;50.60
38333;DHT22;25748;46.670;14.272;2022-09-01T13:10:48;21.30;51.20
38333;DHT22;25748;46.670;14.272;2022-09-01T13:13:15;21.20;50.60
38333;DHT22;25748;46.670;14.272;2022-09-01T13:15:44;21.20;51.00
38333;DHT22;25748;46.670;14.272;2022-09-01T13:18:13;21.10;49.90
38333;DHT22;25748;46.670;14.272;2022-09-01T13:20:38;21.00;49.60
38333;DHT22;25748;46.670;14.272;2022-09-01T13:23:06;21.00;49.70
38333;DHT22;25748;46.670;14.272;2022-09-01T13:25:32;20.90;50.60
38333;DHT22;25748;46.670;14.272;2022-09-01T13:27:58;20.90;51.00
38333;DHT22;25748;46.670;14.272;2022-09-01T13:30:27;20.80;50.80
38333;DHT22;25748;46.670;14.272;2022-09-01T13:32:55;20.80;51.60
38333;DHT22;25748;46.670;14.272;2022-09-01T13:35:22;20.80;51.70
38333;DHT22;25748;46.670;14.272;2022-09-01T13:37:49;20.80;52.00
38333;DHT22;25748;46.670;14.272;2022-09-01T13:40:16;20.70;52.30
38333;DHT22;25748;46.670;14.272;2022-09-01T13:42:46;20.70;53.30
38333;DHT22;25748;46.670;14.272;2022-09-01T13:45:13;20.70;53.60
38333;DHT22;25748;46.670;14.272;2022-09-01T13:47:42;20.70;54.20
38333;DHT22;25748;46.670;14.272;2022-09-01T13:50:09;20.70;54.40
38333;DHT22;25748;46.670;14.272;2022-09-01T13:52:36;20.70;54.80
38333;DHT22;25748;46.670;14.272;2022-09-01T13:55:04;20.70;53.90
38333;DHT22;25748;46.670;14.272;2022-09-01T13:57:30;20.70;53.70
38333;DHT22;25748;46.670;14.272;2022-09-01T13:59:55;20.70;53.60
38333;DHT22;25748;46.670;14.272;2022-09-01T14:02:21;20.70;52.60
38333;DHT22;25748;46.670;14.272;2022-09-01T14:04:47;20.70;52.40
38333;DHT22;25748;46.670;14.272;2022-09-01T14:07:14;20.70;52.90
38333;DHT22;25748;46.670;14.272;2022-09-01T14:09:40;20.70;52.00
38333;DHT22;25748;46.670;14.272;2022-09-01T14:12:06;20.70;51.60
38333;DHT22;25748;46.670;14.272;2022-09-01T14:14:33;20.70;51.60
38333;DHT22;25748;46.670;14.272;2022-09-01T14:16:59;20.70;51.50
38333;DHT22;25748;46.670;14.272;2022-09-01T14:19:25;20.60;50.90
38333;DHT22;25748;46.670;14.272;2022-09-01T14:21:50;20.70;51.60
38333;DHT22;25748;46.670;14.272;2022-09-01T14:24:16;20.70;51.20
38333;DHT22;25748;46.670;14.272;2022-09-01T14:26:44;20.70;51.40
38333;DHT22;25748;46.670;14.272;2022-09-01T14:29:10;20.70;51.90
38333;DHT22;25748;46.670;14.272;2022-09-01T14:31:36;20.70;51.30
38333;DHT22;25748;46.670;14.272;2022-09-01T14:34:02;20.80;51.00
38333;DHT22;25748;46.670;14.272;2022-09-01T14:36:29;20.70;50.70
38333;DHT22;25748;46.670;14.272;2022-09-01T14:38:56;20.80;50.90
38333;DHT22;25748;46.670;14.272;2022-09-01T14:41:22;20.80;50.70
38333;DHT22;25748;46.670;14.272;2022-09-01T14:43:53;20.70;50.10
38333;DHT22;25748;46.670;14.272;2022-09-01T14:46:19;20.80;49.90
38333;DHT22;25748;46.670;14.272;2022-09-01T14:48:46;20.80;50.20
38333;DHT22;25748;46.670;14.272;2022-09-01T14:51:27;20.80;50.30
38333;DHT22;25748;46.670;14.272;2022-09-01T14:53:54;20.80;50.30
38333;DHT22;25748;46.670;14.272;2022-09-01T14:56:21;20.80;51.10
38333;DHT22;25748;46.670;14.272;2022-09-01T14:58:48;20.80;50.80
38333;DHT22;25748;46.670;14.272;2022-09-01T15:01:16;20.70;49.40
38333;DHT22;25748;46.670;14.272;2022-09-01T15:03:43;20.80;50.40
38333;DHT22;25748;46.670;14.272;2022-09-01T15:06:12;20.80;49.70
38333;DHT22;25748;46.670;14.272;2022-09-01T15:08:38;20.80;49.70
38333;DHT22;25748;46.670;14.272;2022-09-01T15:11:13;20.70;49.30
38333;DHT22;25748;46.670;14.272;2022-09-01T15:13:39;20.70;49.60
38333;DHT22;25748;46.670;14.272;2022-09-01T15:16:17;20.70;49.80
38333;DHT22;25748;46.670;14.272;2022-09-01T15:18:43;20.60;49.80
38333;DHT22;25748;46.670;14.272;2022-09-01T15:21:22;20.70;49.60
38333;DHT22;25748;46.670;14.272;2022-09-01T15:23:48;20.60;49.50
38333;DHT22;25748;46.670;14.272;2022-09-01T15:26:15;20.50;49.10
38333;DHT22;25748;46.670;14.272;2022-09-01T15:28:42;20.50;49.70
38333;DHT22;25748;46.670;14.272;2022-09-01T15:31:08;20.50;50.00
38333;DHT22;25748;46.670;14.272;2022-09-01T15:33:35;20.40;49.80
38333;DHT22;25748;46.670;14.272;2022-09-01T15:36:01;20.40;49.70
38333;DHT22;25748;46.670;14.272;2022-09-01T15:38:27;20.40;49.30
38333;DHT22;25748;46.670;14.272;2022-09-01T15:40:53;20.40;49.50
38333;DHT22;25748;46.670;14.272;2022-09-01T15:43:20;20.40;50.00
38333;DHT22;25748;46.670;14.272;2022-09-01T15:45:46;20.40;49.50
38333;DHT22;25748;46.670;14.272;2022-09-01T15:48:13;20.40;49.50
38333;DHT22;25748;46.670;14.272;2022-09-01T15:50:38;20.40;49.70
38333;DHT22;25748;46.670;14.272;2022-09-01T15:53:06;20.40;50.00
38333;DHT22;25748;46.670;14.272;2022-09-01T15:55:45;20.40;50.00
38333;DHT22;25748;46.670;14.272;2022-09-01T15:58:13;20.50;49.90
38333;DHT22;25748;46.670;14.272;2022-09-01T16:00:40;20.40;49.90
38333;DHT22;25748;46.670;14.272;2022-09-01T16:03:06;20.40;49.50
38333;DHT22;25748;46.670;14.272;2022-09-01T16:05:35;20.40;49.50
38333;DHT22;25748;46.670;14.272;2022-09-01T16:08:02;20.40;49.30
38333;DHT22;25748;46.670;14.272;2022-09-01T16:10:30;20.40;50.10
38333;DHT22;25748;46.670;14.272;2022-09-01T16:12:56;20.40;49.60
38333;DHT22;25748;46.670;14.272;2022-09-01T16:15:24;20.40;49.70
38333;DHT22;25748;46.670;14.272;2022-09-01T16:23:16;20.40;49.30
38333;DHT22;25748;46.670;14.272;2022-09-01T16:25:42;20.30;49.00
38333;DHT22;25748;46.670;14.272;2022-09-01T16:30:51;20.20;49.80
38333;DHT22;25748;46.670;14.272;2022-09-01T16:33:18;20.20;50.70
38333;DHT22;25748;46.670;14.272;2022-09-01T16:38:51;20.00;52.40
38333;DHT22;25748;46.670;14.272;2022-09-01T16:41:34;19.90;52.70
38333;DHT22;25748;46.670;14.272;2022-09-01T16:46:47;19.70;53.60
38333;DHT22;25748;46.670;14.272;2022-09-01T16:49:30;19.60;54.00
38333;DHT22;25748;46.670;14.272;2022-09-01T16:52:14;19.50;54.50
38333;DHT22;25748;46.670;14.272;2022-09-01T17:00:08;19.20;54.90
38333;DHT22;25748;46.670;14.272;2022-09-01T17:08:24;18.70;55.90